Time;durP1;ratioP1;P1;durP2;ratioP2;P2;SDS_P1;SDS_P2;PMS_P1;PMS_P2;Temp;Humidity;BMP_temperature;BMP_pressure;BME280_temperature;BME280_humidity;BME280_pressure;Samples;Min_cycle;Max_cycle;Signal;HPM_P1;HPM_P2
2021/12/25 00:00:51;;;;;;;16.60;7.90;;;;;;;;;;6206595;23;20015;-42
2021/12/25 00:03:16;;;;;;;19.10;8.70;;;;;;;;;;6206659;23;20103;-45
2021/12/25 00:05:42;;;;;;;18.48;8.73;;;;;;;;;;6206952;23;20028;-43
2021/12/25 00:08:07;;;;;;;15.90;10.05;;;;;;;;;;6207877;23;20032;-43
2021/12/25 00:10:33;;;;;;;14.77;8.32;;;;;;;;;;6204102;23;20012;-44
2021/12/25 00:12:59;;;;;;;19.92;9.48;;;;;;;;;;6207941;23;20012;-44
2021/12/25 00:15:24;;;;;;;15.45;8.98;;;;;;;;;;6206141;23;20035;-43
2021/12/25 00:17:49;;;;;;;17.70;9.23;;;;;;;;;;6207584;23;20012;-43
2021/12/25 00:20:15;;;;;;;19.92;9.18;;;;;;;;;;6206438;23;20449;-42
2021/12/25 00:22:40;;;;;;;13.07;10.23;;;;;;;;;;6207714;23;20024;-42
2021/12/25 00:25:06;;;;;;;19.20;11.82;;;;;;;;;;6206605;23;20013;-42
2021/12/25 00:27:43;;;;;;;16.58;11.10;;;;;;;;;;6206822;23;20062;-42
2021/12/25 00:30:16;;;;;;;22.15;10.52;;;;;;;;;;6206756;23;20016;-43
2021/12/25 00:32:53;;;;;;;18.50;10.68;;;;;;;;;;6230780;23;20111;-43
2021/12/25 00:35:19;;;;;;;19.70;10.50;;;;;;;;;;6206228;23;20380;-42
2021/12/25 00:37:44;;;;;;;16.88;10.48;;;;;;;;;;6207033;23;20077;-42
2021/12/25 00:40:10;;;;;;;16.75;11.35;;;;;;;;;;6206611;23;20012;-42
2021/12/25 00:42:35;;;;;;;17.08;11.68;;;;;;;;;;6207397;23;20005;-42
2021/12/25 00:45:00;;;;;;;20.05;11.80;;;;;;;;;;6206541;23;20005;-42
2021/12/25 00:47:25;;;;;;;20.45;12.15;;;;;;;;;;6206810;23;20016;-42
2021/12/25 00:49:51;;;;;;;20.33;12.43;;;;;;;;;;6206427;23;20036;-44
2021/12/25 00:52:16;;;;;;;19.95;10.98;;;;;;;;;;6205924;23;20029;-42
2021/12/25 00:54:41;;;;;;;22.27;11.98;;;;;;;;;;6206858;23;20015;-42
2021/12/25 00:57:06;;;;;;;19.13;11.70;;;;;;;;;;6207755;23;20863;-44
2021/12/25 00:59:32;;;;;;;24.10;11.50;;;;;;;;;;6206156;23;20013;-43
2021/12/25 01:01:58;;;;;;;25.45;12.25;;;;;;;;;;6207065;23;20012;-42
2021/12/25 01:04:24;;;;;;;20.08;12.35;;;;;;;;;;6204114;23;20441;-43
2021/12/25 01:06:49;;;;;;;18.88;11.40;;;;;;;;;;6207427;23;20009;-42
2021/12/25 01:09:14;;;;;;;24.67;12.15;;;;;;;;;;6205872;23;20432;-42
2021/12/25 01:11:42;;;;;;;22.27;14.23;;;;;;;;;;6207117;23;20004;-45
2021/12/25 01:14:19;;;;;;;23.45;12.65;;;;;;;;;;6204704;23;20064;-43
2021/12/25 01:23:05;;;;;;;25.45;14.50;;;;;;;;;;6144953;23;20348;-44
2021/12/25 01:42:07;;;;;;;24.27;14.60;;;;;;;;;;6208337;23;20587;-41
2021/12/25 01:49:36;;;;;;;22.00;13.15;;;;;;;;;;6208227;23;20067;-42
2021/12/25 01:52:03;;;;;;;24.85;14.25;;;;;;;;;;6208545;23;20024;-41
2021/12/25 01:54:28;;;;;;;28.48;14.40;;;;;;;;;;6207518;23;20022;-41
2021/12/25 01:56:53;;;;;;;24.13;15.15;;;;;;;;;;6208805;23;20095;-43
2021/12/25 01:59:18;;;;;;;29.40;16.20;;;;;;;;;;6207190;23;20008;-43
2021/12/25 02:01:44;;;;;;;25.38;13.93;;;;;;;;;;6209042;23;20376;-43
2021/12/25 02:04:09;;;;;;;21.90;13.13;;;;;;;;;;6208078;23;20492;-44
2021/12/25 02:06:35;;;;;;;28.85;14.35;;;;;;;;;;6208511;23;20000;-42
2021/12/25 02:09:00;;;;;;;21.48;13.65;;;;;;;;;;6207982;23;20036;-46
2021/12/25 02:11:25;;;;;;;25.83;13.30;;;;;;;;;;6207653;23;20088;-43
2021/12/25 02:13:51;;;;;;;31.50;14.50;;;;;;;;;;6208121;23;20075;-42
2021/12/25 02:16:19;;;;;;;24.95;13.27;;;;;;;;;;6208208;23;20031;-45
2021/12/25 02:19:02;;;;;;;24.42;13.90;;;;;;;;;;6208149;23;20444;-43
2021/12/25 02:21:36;;;;;;;21.23;12.52;;;;;;;;;;6208280;23;20032;-41
2021/12/25 02:24:04;;;;;;;23.30;13.98;;;;;;;;;;6207105;23;20054;-45
2021/12/25 02:26:29;;;;;;;25.48;13.43;;;;;;;;;;6208158;23;20020;-42
2021/12/25 02:28:55;;;;;;;20.52;11.55;;;;;;;;;;6207920;23;20016;-42
2021/12/25 02:31:20;;;;;;;20.60;11.38;;;;;;;;;;6207743;23;20514;-43
2021/12/25 02:33:46;;;;;;;21.33;10.93;;;;;;;;;;6208097;23;20009;-42
2021/12/25 02:36:12;;;;;;;16.42;9.05;;;;;;;;;;6207671;23;20024;-42
2021/12/25 02:38:37;;;;;;;22.92;8.57;;;;;;;;;;6208223;23;20011;-41
2021/12/25 02:41:03;;;;;;;18.52;8.93;;;;;;;;;;6208462;23;20504;-42
2021/12/25 02:43:28;;;;;;;18.17;9.70;;;;;;;;;;6206937;23;20059;-42
2021/12/25 02:45:54;;;;;;;17.23;7.78;;;;;;;;;;6206744;23;20005;-42
2021/12/25 02:48:20;;;;;;;14.35;6.45;;;;;;;;;;6207215;23;20023;-43
2021/12/25 02:50:46;;;;;;;13.98;7.93;;;;;;;;;;6208282;23;20341;-42
2021/12/25 02:53:12;;;;;;;14.65;7.82;;;;;;;;;;6206879;23;20027;-42
2021/12/25 02:55:38;;;;;;;14.75;6.70;;;;;;;;;;6208317;23;20016;-42
2021/12/25 02:58:05;;;;;;;13.88;7.22;;;;;;;;;;6207622;23;20021;-42
2021/12/25 03:00:32;;;;;;;15.82;6.82;;;;;;;;;;6206778;23;20075;-43
2021/12/25 03:03:00;;;;;;;13.48;6.72;;;;;;;;;;6207554;23;20452;-43
2021/12/25 03:05:25;;;;;;;16.33;6.40;;;;;;;;;;6206205;23;20405;-41
2021/12/25 03:07:50;;;;;;;15.27;7.05;;;;;;;;;;6207731;23;20020;-45
2021/12/25 03:10:16;;;;;;;18.38;6.80;;;;;;;;;;6207412;23;20040;-44
2021/12/25 03:13:05;;;;;;;14.52;6.60;;;;;;;;;;6205649;23;20005;-42
2021/12/25 03:15:41;;;;;;;10.70;6.40;;;;;;;;;;6207041;23;20009;-42
2021/12/25 03:18:07;;;;;;;12.10;5.63;;;;;;;;;;6208400;23;20012;-43
2021/12/25 03:20:33;;;;;;;16.58;5.70;;;;;;;;;;6206860;23;20020;-44
2021/12/25 03:22:59;;;;;;;20.48;6.60;;;;;;;;;;6205639;23;20011;-43
2021/12/25 03:25:24;;;;;;;15.68;8.00;;;;;;;;;;6207360;23;20083;-43
2021/12/25 03:27:51;;;;;;;16.13;7.63;;;;;;;;;;6207555;23;20054;-42
2021/12/25 03:30:17;;;;;;;15.23;5.78;;;;;;;;;;6205683;23;20020;-41
2021/12/25 03:32:42;;;;;;;21.33;6.90;;;;;;;;;;6207391;23;20008;-44
2021/12/25 03:35:07;;;;;;;18.98;6.75;;;;;;;;;;6207395;23;20082;-41
2021/12/25 03:37:33;;;;;;;17.45;7.75;;;;;;;;;;6207770;23;20036;-43
2021/12/25 03:39:58;;;;;;;16.63;6.88;;;;;;;;;;6206851;23;20017;-42
2021/12/25 03:42:23;;;;;;;17.65;6.90;;;;;;;;;;6206872;23;20023;-44
2021/12/25 03:44:48;;;;;;;12.00;7.85;;;;;;;;;;6207318;23;20322;-43
2021/12/25 03:47:26;;;;;;;21.60;7.38;;;;;;;;;;6207024;23;20013;-42
2021/12/25 03:58:06;;;;;;;18.30;9.90;;;;;;;;;;6207809;23;20036;-42
2021/12/25 04:00:32;;;;;;;24.98;10.60;;;;;;;;;;6206752;23;20429;-42
2021/12/25 04:03:03;;;;;;;22.85;11.10;;;;;;;;;;6207580;23;20014;-42
2021/12/25 04:05:31;;;;;;;23.10;11.65;;;;;;;;;;6206611;23;20009;-42
2021/12/25 04:08:08;;;;;;;24.90;12.00;;;;;;;;;;6206486;23;20082;-42
2021/12/25 04:10:38;;;;;;;28.02;13.60;;;;;;;;;;6204195;23;20008;-41
2021/12/25 04:13:05;;;;;;;30.33;14.00;;;;;;;;;;6207698;23;20031;-42
2021/12/25 04:15:30;;;;;;;30.58;17.23;;;;;;;;;;6204724;23;20020;-43
2021/12/25 04:17:55;;;;;;;32.83;16.17;;;;;;;;;;6206202;23;20020;-42
2021/12/25 04:20:21;;;;;;;35.75;18.38;;;;;;;;;;6206666;23;20008;-42
2021/12/25 04:23:10;;;;;;;42.40;19.27;;;;;;;;;;6207452;23;20020;-42
2021/12/25 04:25:33;;;;;;;38.58;21.08;;;;;;;;;;6206738;23;20035;-43
2021/12/25 04:28:06;;;;;;;42.83;19.92;;;;;;;;;;6207404;23;20040;-42
2021/12/25 05:03:27;;;;;;;64.57;24.85;;;;;;;;;;6207310;23;20123;-42
2021/12/25 05:05:46;;;;;;;58.75;23.15;;;;;;;;;;6206983;23;20019;-42
2021/12/25 05:08:11;;;;;;;55.22;24.77;;;;;;;;;;6206707;23;20012;-42
2021/12/25 05:10:37;;;;;;;55.33;25.08;;;;;;;;;;6206636;23;20005;-42
2021/12/25 05:13:02;;;;;;;60.15;25.25;;;;;;;;;;6207272;23;20433;-42
2021/12/25 05:15:27;;;;;;;56.22;24.08;;;;;;;;;;6206000;23;20013;-42
2021/12/25 05:17:52;;;;;;;54.28;23.40;;;;;;;;;;6207069;23;20039;-42
2021/12/25 05:20:18;;;;;;;53.25;24.05;;;;;;;;;;6206093;23;20020;-42
2021/12/25 05:22:44;;;;;;;65.47;24.75;;;;;;;;;;6207592;23;20020;-43
2021/12/25 05:25:11;;;;;;;59.95;23.45;;;;;;;;;;6206831;23;20009;-42
2021/12/25 05:27:36;;;;;;;60.78;24.83;;;;;;;;;;6206036;23;20008;-42
2021/12/25 05:30:02;;;;;;;56.30;23.45;;;;;;;;;;6206606;23;20019;-42
2021/12/25 05:32:27;;;;;;;54.42;24.40;;;;;;;;;;6206653;23;20476;-42
2021/12/25 05:34:52;;;;;;;75.18;27.77;;;;;;;;;;6206543;23;20090;-42
2021/12/25 05:37:18;;;;;;;43.40;21.35;;;;;;;;;;6206527;23;20048;-41
2021/12/25 05:39:49;;;;;;;62.40;25.88;;;;;;;;;;6206277;23;20007;-43
2021/12/25 05:42:15;;;;;;;61.90;27.40;;;;;;;;;;6206580;23;20017;-44
2021/12/25 05:44:40;;;;;;;56.72;23.95;;;;;;;;;;6206320;23;20076;-42
2021/12/25 05:47:06;;;;;;;55.50;24.35;;;;;;;;;;6206979;23;20017;-42
2021/12/25 05:49:31;;;;;;;66.10;25.90;;;;;;;;;;6205908;23;20151;-41
2021/12/25 05:51:56;;;;;;;58.55;25.13;;;;;;;;;;6206653;23;20047;-41
2021/12/25 05:54:21;;;;;;;56.63;24.63;;;;;;;;;;6205306;23;20352;-42
2021/12/25 05:56:47;;;;;;;68.72;26.25;;;;;;;;;;6207177;23;20534;-43
2021/12/25 05:59:12;;;;;;;53.78;23.48;;;;;;;;;;6205518;23;20103;-43
2021/12/25 06:01:38;;;;;;;57.95;26.67;;;;;;;;;;6206752;23;20001;-42
2021/12/25 06:04:04;;;;;;;61.40;27.60;;;;;;;;;;6206206;23;20016;-42
2021/12/25 06:06:29;;;;;;;58.33;24.85;;;;;;;;;;6208380;23;20017;-42
2021/12/25 06:08:54;;;;;;;56.22;26.55;;;;;;;;;;6206476;23;20425;-41
2021/12/25 06:11:22;;;;;;;63.17;26.25;;;;;;;;;;6208229;23;20031;-42
2021/12/25 06:13:57;;;;;;;50.67;23.77;;;;;;;;;;6208085;23;20016;-43
2021/12/25 06:16:22;;;;;;;60.95;24.85;;;;;;;;;;6208124;23;20327;-42
2021/12/25 06:18:48;;;;;;;57.85;25.02;;;;;;;;;;6207908;23;20039;-43
2021/12/25 06:21:13;;;;;;;53.55;23.25;;;;;;;;;;6208051;23;20016;-44
2021/12/25 06:23:38;;;;;;;46.25;22.73;;;;;;;;;;6208104;23;20011;-42
2021/12/25 06:26:03;;;;;;;51.90;24.63;;;;;;;;;;6208126;23;20009;-42
2021/12/25 06:28:29;;;;;;;48.63;23.17;;;;;;;;;;6207784;23;20017;-42
2021/12/25 06:30:54;;;;;;;49.60;22.67;;;;;;;;;;6208168;23;20012;-42
2021/12/25 06:33:19;;;;;;;48.45;22.25;;;;;;;;;;6207759;23;20018;-42
2021/12/25 06:35:45;;;;;;;46.88;22.48;;;;;;;;;;6208240;23;20481;-42
2021/12/25 06:38:10;;;;;;;45.67;21.60;;;;;;;;;;6207127;23;20004;-46
2021/12/25 06:40:35;;;;;;;48.55;22.25;;;;;;;;;;6208170;23;20011;-42
2021/12/25 06:43:01;;;;;;;53.38;24.05;;;;;;;;;;6207898;23;20019;-42
2021/12/25 06:45:27;;;;;;;48.75;20.60;;;;;;;;;;6207888;23;20036;-44
2021/12/25 06:47:52;;;;;;;41.03;19.58;;;;;;;;;;6207909;23;20013;-42
2021/12/25 06:50:17;;;;;;;40.42;19.40;;;;;;;;;;6207881;23;20015;-46
2021/12/25 06:52:45;;;;;;;42.45;18.85;;;;;;;;;;6207441;23;20020;-42
2021/12/25 06:55:11;;;;;;;39.28;19.95;;;;;;;;;;6207476;23;20079;-43
2021/12/25 06:57:43;;;;;;;34.17;18.52;;;;;;;;;;6207641;23;20013;-42
2021/12/25 07:00:09;;;;;;;40.40;17.42;;;;;;;;;;6208254;23;20008;-42
2021/12/25 07:02:34;;;;;;;35.22;15.77;;;;;;;;;;6207233;23;20012;-45
2021/12/25 07:05:00;;;;;;;27.75;16.35;;;;;;;;;;6208331;23;20009;-43
2021/12/25 07:07:25;;;;;;;30.50;15.68;;;;;;;;;;6230561;23;20015;-42
2021/12/25 07:09:51;;;;;;;32.58;15.07;;;;;;;;;;6208127;23;20444;-45
2021/12/25 07:12:16;;;;;;;34.47;16.20;;;;;;;;;;6207358;23;20054;-45
2021/12/25 07:14:41;;;;;;;36.65;16.42;;;;;;;;;;6208083;23;20425;-43
2021/12/25 07:17:07;;;;;;;32.40;14.00;;;;;;;;;;6207233;23;20031;-43
2021/12/25 07:19:32;;;;;;;35.97;15.75;;;;;;;;;;6207489;23;20013;-43
2021/12/25 07:21:57;;;;;;;30.83;15.13;;;;;;;;;;6207568;23;20040;-42
2021/12/25 07:24:22;;;;;;;35.85;16.33;;;;;;;;;;6206908;23;20017;-44
2021/12/25 07:26:48;;;;;;;30.00;15.52;;;;;;;;;;6207898;23;20333;-41
2021/12/25 07:29:13;;;;;;;37.78;17.00;;;;;;;;;;6206626;23;20376;-43
2021/12/25 07:31:38;;;;;;;39.17;16.75;;;;;;;;;;6207818;23;20099;-43
2021/12/25 07:34:04;;;;;;;39.08;17.10;;;;;;;;;;6207879;23;20369;-42
2021/12/25 07:36:29;;;;;;;34.95;15.90;;;;;;;;;;6206484;23;20087;-42
2021/12/25 07:38:56;;;;;;;32.05;15.18;;;;;;;;;;6208262;23;20348;-43
2021/12/25 07:41:21;;;;;;;30.33;14.70;;;;;;;;;;6206858;23;20039;-42
2021/12/25 07:43:46;;;;;;;27.25;13.02;;;;;;;;;;6207786;23;20445;-42
2021/12/25 07:46:12;;;;;;;33.13;14.63;;;;;;;;;;6206558;23;20032;-42
2021/12/25 07:48:37;;;;;;;28.80;14.27;;;;;;;;;;6207694;23;20009;-42
2021/12/25 07:51:02;;;;;;;28.63;13.48;;;;;;;;;;6207261;23;20477;-42
2021/12/25 07:53:29;;;;;;;25.30;15.48;;;;;;;;;;6205295;23;20062;-41
2021/12/25 07:55:54;;;;;;;27.55;14.45;;;;;;;;;;6207237;23;20043;-44
2021/12/25 07:58:19;;;;;;;32.25;14.68;;;;;;;;;;6207164;23;20016;-41
2021/12/25 08:00:45;;;;;;;30.05;15.57;;;;;;;;;;6206816;23;20004;-41
2021/12/25 08:03:11;;;;;;;36.33;13.98;;;;;;;;;;6206932;23;20013;-41
2021/12/25 08:05:36;;;;;;;32.10;14.57;;;;;;;;;;6207065;23;20016;-41
2021/12/25 08:08:03;;;;;;;28.88;15.07;;;;;;;;;;6207611;23;20001;-42
2021/12/25 08:10:28;;;;;;;28.20;13.57;;;;;;;;;;6206288;23;20040;-42
2021/12/25 08:12:54;;;;;;;29.13;15.25;;;;;;;;;;6207933;23;20084;-42
2021/12/25 08:15:21;;;;;;;35.28;14.45;;;;;;;;;;6206272;23;20092;-42
2021/12/25 08:17:47;;;;;;;28.35;14.02;;;;;;;;;;6207910;23;20083;-41
2021/12/25 08:20:13;;;;;;;31.73;13.98;;;;;;;;;;6206437;23;20013;-42
2021/12/25 08:22:39;;;;;;;28.15;14.40;;;;;;;;;;6207564;23;20005;-43
2021/12/25 08:25:05;;;;;;;26.80;13.52;;;;;;;;;;6207268;23;20043;-42
2021/12/25 08:27:30;;;;;;;24.20;13.73;;;;;;;;;;6206120;23;20009;-42
2021/12/25 08:29:55;;;;;;;30.23;13.43;;;;;;;;;;6207280;23;20009;-42
2021/12/25 08:32:21;;;;;;;22.90;12.50;;;;;;;;;;6207004;23;20044;-41
2021/12/25 08:34:46;;;;;;;33.80;13.82;;;;;;;;;;6207059;23;20015;-42
2021/12/25 08:37:12;;;;;;;26.52;13.73;;;;;;;;;;6206734;23;20040;-41
2021/12/25 08:39:37;;;;;;;27.25;12.52;;;;;;;;;;6206909;23;20012;-42
2021/12/25 08:42:04;;;;;;;29.48;13.93;;;;;;;;;;6207076;23;20016;-42
2021/12/25 08:44:52;;;;;;;28.33;14.07;;;;;;;;;;6206353;23;20015;-42
2021/12/25 08:47:16;;;;;;;21.42;12.15;;;;;;;;;;6206786;23;20004;-43
2021/12/25 08:49:42;;;;;;;28.27;13.45;;;;;;;;;;6206664;23;20152;-43
2021/12/25 08:52:09;;;;;;;22.23;13.10;;;;;;;;;;6207219;23;20028;-43
2021/12/25 08:54:34;;;;;;;22.65;12.85;;;;;;;;;;6206420;23;20005;-42
2021/12/25 08:57:00;;;;;;;20.80;11.63;;;;;;;;;;6207248;23;20017;-44
2021/12/25 08:59:26;;;;;;;24.13;12.35;;;;;;;;;;6206048;23;20013;-43
2021/12/25 09:01:51;;;;;;;17.25;11.43;;;;;;;;;;6206505;23;20008;-45
2021/12/25 09:04:16;;;;;;;23.13;13.00;;;;;;;;;;6206173;23;20515;-42
2021/12/25 09:06:42;;;;;;;20.90;11.77;;;;;;;;;;6207146;23;20009;-43
2021/12/25 09:09:07;;;;;;;21.55;11.90;;;;;;;;;;6207295;23;20753;-43
2021/12/25 09:11:33;;;;;;;18.98;10.93;;;;;;;;;;6206673;23;20448;-44
2021/12/25 09:13:58;;;;;;;16.15;9.07;;;;;;;;;;6207028;23;20005;-42
2021/12/25 09:16:24;;;;;;;19.77;11.52;;;;;;;;;;6206756;23;20356;-42
2021/12/25 09:18:49;;;;;;;18.63;10.95;;;;;;;;;;6206671;23;20854;-42
2021/12/25 09:21:14;;;;;;;18.33;11.43;;;;;;;;;;6206607;23;20009;-42
2021/12/25 09:23:40;;;;;;;17.88;10.25;;;;;;;;;;6206690;23;20012;-45
2021/12/25 09:26:05;;;;;;;15.73;10.52;;;;;;;;;;6207361;23;20076;-46
2021/12/25 09:28:30;;;;;;;18.38;10.20;;;;;;;;;;6205971;23;20008;-44
2021/12/25 09:30:56;;;;;;;16.98;11.30;;;;;;;;;;6207300;23;20021;-42
2021/12/25 09:33:21;;;;;;;21.55;12.70;;;;;;;;;;6205858;23;20015;-44
2021/12/25 09:35:46;;;;;;;17.15;10.98;;;;;;;;;;6206665;23;20590;-46
2021/12/25 09:38:12;;;;;;;17.65;10.93;;;;;;;;;;6206141;23;20016;-42
2021/12/25 09:40:37;;;;;;;18.17;11.35;;;;;;;;;;6208916;23;20035;-44
2021/12/25 09:43:02;;;;;;;24.45;10.75;;;;;;;;;;6208326;23;20013;-44
2021/12/25 09:45:28;;;;;;;17.85;10.50;;;;;;;;;;6208295;23;20019;-45
2021/12/25 09:47:53;;;;;;;17.77;10.05;;;;;;;;;;6208756;23;20016;-43
2021/12/25 09:50:18;;;;;;;17.05;11.57;;;;;;;;;;6208103;23;20070;-42
2021/12/25 09:52:44;;;;;;;16.35;9.48;;;;;;;;;;6207999;23;20020;-43
2021/12/25 09:55:10;;;;;;;19.83;11.02;;;;;;;;;;6207978;23;20326;-41
2021/12/25 09:57:36;;;;;;;16.73;10.13;;;;;;;;;;6207914;23;20457;-42
2021/12/25 10:00:12;;;;;;;16.00;9.68;;;;;;;;;;6208781;23;20015;-43
2021/12/25 10:02:44;;;;;;;14.80;9.77;;;;;;;;;;6207290;23;20043;-43
2021/12/25 10:05:10;;;;;;;16.77;10.38;;;;;;;;;;6208068;23;20012;-42
2021/12/25 10:07:36;;;;;;;14.05;10.80;;;;;;;;;;6208318;23;20089;-45
2021/12/25 10:10:04;;;;;;;20.20;11.27;;;;;;;;;;6232147;23;20121;-44
2021/12/25 10:12:40;;;;;;;17.95;9.70;;;;;;;;;;6207158;23;20732;-44
2021/12/25 10:15:08;;;;;;;16.42;11.13;;;;;;;;;;6207243;23;20008;-43
2021/12/25 10:17:33;;;;;;;18.25;11.02;;;;;;;;;;6231058;23;20495;-47
2021/12/25 10:20:07;;;;;;;19.80;10.65;;;;;;;;;;6208332;23;20009;-44
2021/12/25 10:22:33;;;;;;;17.00;10.50;;;;;;;;;;6207917;23;20012;-43
2021/12/25 10:25:10;;;;;;;17.58;11.25;;;;;;;;;;6208205;23;20102;-42
2021/12/25 10:27:36;;;;;;;20.88;11.95;;;;;;;;;;6207364;23;20449;-44
2021/12/25 10:30:03;;;;;;;20.63;11.75;;;;;;;;;;6208323;23;20028;-45
2021/12/25 10:32:28;;;;;;;17.35;11.07;;;;;;;;;;6208094;23;22579;-46
2021/12/25 10:34:54;;;;;;;22.35;12.45;;;;;;;;;;6207841;23;20075;-43
2021/12/25 10:37:21;;;;;;;20.10;11.40;;;;;;;;;;6207562;23;20020;-44
2021/12/25 10:39:47;;;;;;;17.23;10.77;;;;;;;;;;6207646;23;20000;-46
2021/12/25 10:42:18;;;;;;;17.65;12.02;;;;;;;;;;6207563;23;20039;-44
2021/12/25 10:44:52;;;;;;;20.20;12.07;;;;;;;;;;6207977;23;20005;-43
2021/12/25 10:47:21;;;;;;;15.18;10.63;;;;;;;;;;6207880;23;20066;-45
2021/12/25 10:49:49;;;;;;;15.90;11.52;;;;;;;;;;6207494;23;20017;-42
2021/12/25 10:52:21;;;;;;;16.08;11.65;;;;;;;;;;6207502;23;20092;-43
2021/12/25 10:54:53;;;;;;;17.83;11.07;;;;;;;;;;6208200;23;20020;-44
2021/12/25 10:57:38;;;;;;;20.23;10.68;;;;;;;;;;6206807;23;20032;-46
2021/12/25 11:00:06;;;;;;;15.20;11.40;;;;;;;;;;6208204;23;20364;-44
2021/12/25 11:02:40;;;;;;;17.13;10.52;;;;;;;;;;6207147;23;20445;-42
2021/12/25 11:05:14;;;;;;;16.23;9.65;;;;;;;;;;6208009;23;20023;-45
2021/12/25 11:07:39;;;;;;;15.23;10.35;;;;;;;;;;6207469;23;20075;-43
2021/12/25 11:10:06;;;;;;;16.20;10.15;;;;;;;;;;6208024;23;20055;-43
2021/12/25 11:12:32;;;;;;;18.42;10.82;;;;;;;;;;6207102;23;20008;-44
2021/12/25 11:15:16;;;;;;;12.18;9.07;;;;;;;;;;6207714;23;20036;-42
2021/12/25 11:17:43;;;;;;;13.57;9.57;;;;;;;;;;6207968;23;20028;-42
2021/12/25 11:20:17;;;;;;;15.20;8.48;;;;;;;;;;6207453;23;20031;-44
2021/12/25 11:22:53;;;;;;;14.02;8.63;;;;;;;;;;6207832;23;20016;-44
2021/12/25 11:25:20;;;;;;;10.68;7.63;;;;;;;;;;6206580;23;20018;-42
2021/12/25 11:27:46;;;;;;;14.25;9.57;;;;;;;;;;6207644;23;20016;-42
2021/12/25 11:30:12;;;;;;;11.60;8.23;;;;;;;;;;6206462;23;20012;-43
2021/12/25 11:32:37;;;;;;;13.88;8.20;;;;;;;;;;6208305;23;20008;-42
2021/12/25 11:35:03;;;;;;;14.63;9.23;;;;;;;;;;6206978;23;20008;-44
2021/12/25 11:37:28;;;;;;;11.02;8.38;;;;;;;;;;6207343;23;20788;-42
2021/12/25 11:39:54;;;;;;;13.10;8.52;;;;;;;;;;6207166;23;20008;-42
2021/12/25 11:42:20;;;;;;;14.32;8.07;;;;;;;;;;6205577;23;20349;-50
2021/12/25 11:44:52;;;;;;;12.73;9.00;;;;;;;;;;6207163;23;20516;-42
2021/12/25 11:47:37;;;;;;;13.23;7.72;;;;;;;;;;6207269;23;20460;-43
2021/12/25 11:50:12;;;;;;;11.05;8.25;;;;;;;;;;6207594;23;20005;-47
2021/12/25 11:52:46;;;;;;;15.63;8.23;;;;;;;;;;6230170;23;20055;-42
2021/12/25 12:00:33;;;;;;;10.98;7.97;;;;;;;;;;6207064;23;20016;-43
2021/12/25 12:02:59;;;;;;;11.93;9.18;;;;;;;;;;6207692;23;20015;-44
2021/12/25 12:05:25;;;;;;;12.55;8.15;;;;;;;;;;6206666;23;20349;-43
2021/12/25 12:07:56;;;;;;;12.07;7.45;;;;;;;;;;6230908;23;20090;-42
2021/12/25 12:10:41;;;;;;;10.20;7.82;;;;;;;;;;6206459;23;20028;-47
2021/12/25 12:13:20;;;;;;;13.50;8.27;;;;;;;;;;6207685;23;20019;-46
2021/12/25 12:15:46;;;;;;;10.75;7.45;;;;;;;;;;6207270;23;20004;-42
2021/12/25 12:18:24;;;;;;;11.70;6.95;;;;;;;;;;6206862;23;20017;-43
2021/12/25 12:20:51;;;;;;;10.80;7.63;;;;;;;;;;6207680;23;20008;-43
2021/12/25 12:23:33;;;;;;;9.07;7.07;;;;;;;;;;6206473;23;20086;-43
2021/12/25 12:26:04;;;;;;;7.93;6.93;;;;;;;;;;6205477;23;20015;-42
2021/12/25 12:28:41;;;;;;;9.88;6.65;;;;;;;;;;6207020;23;20036;-42
2021/12/25 12:31:07;;;;;;;8.18;6.03;;;;;;;;;;6207763;23;20333;-42
2021/12/25 12:33:32;;;;;;;6.00;5.40;;;;;;;;;;6204674;23;20005;-44
2021/12/25 12:35:58;;;;;;;7.15;5.68;;;;;;;;;;6207818;23;20012;-42
2021/12/25 12:38:23;;;;;;;6.22;5.45;;;;;;;;;;6206260;23;20070;-44
2021/12/25 12:41:08;;;;;;;9.60;5.95;;;;;;;;;;6207316;23;20026;-42
2021/12/25 12:44:09;;;;;;;9.50;5.53;;;;;;;;;;6206244;23;20063;-45
2021/12/25 12:46:58;;;;;;;7.10;6.28;;;;;;;;;;6114160;23;20455;-43
2021/12/25 12:49:25;;;;;;;6.38;5.68;;;;;;;;;;6201381;23;20013;-42
2021/12/25 12:52:09;;;;;;;5.55;4.75;;;;;;;;;;6207122;23;20031;-42
2021/12/25 12:54:45;;;;;;;6.03;4.78;;;;;;;;;;6206277;23;20013;-44
2021/12/25 12:57:15;;;;;;;7.35;5.57;;;;;;;;;;6206209;23;20021;-44
2021/12/25 12:59:48;;;;;;;7.90;5.05;;;;;;;;;;6207312;23;20009;-46
2021/12/25 13:02:14;;;;;;;5.00;4.50;;;;;;;;;;6206184;23;20008;-42
2021/12/25 13:04:43;;;;;;;5.65;4.05;;;;;;;;;;6207243;23;20004;-44
2021/12/25 13:07:13;;;;;;;5.70;4.25;;;;;;;;;;6206706;23;20008;-42
2021/12/25 13:09:44;;;;;;;8.15;4.13;;;;;;;;;;6207091;23;20381;-42
2021/12/25 13:12:20;;;;;;;5.40;4.32;;;;;;;;;;6205972;23;20032;-43
2021/12/25 13:14:56;;;;;;;6.55;4.22;;;;;;;;;;6208570;23;20345;-42
2021/12/25 13:17:21;;;;;;;5.55;3.85;;;;;;;;;;6208087;23;20024;-44
2021/12/25 13:19:47;;;;;;;8.80;4.75;;;;;;;;;;6209511;23;20040;-44
2021/12/25 13:22:12;;;;;;;5.15;4.65;;;;;;;;;;6207652;23;20333;-42
2021/12/25 13:24:37;;;;;;;5.78;4.20;;;;;;;;;;6209325;23;20024;-43
2021/12/25 13:27:03;;;;;;;6.05;4.47;;;;;;;;;;6208396;23;20098;-43
2021/12/25 13:29:28;;;;;;;5.82;4.60;;;;;;;;;;6208540;23;20074;-43
2021/12/25 13:31:54;;;;;;;4.40;3.78;;;;;;;;;;6208733;23;20472;-45
2021/12/25 13:34:21;;;;;;;6.05;4.70;;;;;;;;;;6208012;23;20059;-44
2021/12/25 13:36:47;;;;;;;6.18;4.68;;;;;;;;;;6208684;23;20091;-44
2021/12/25 13:39:16;;;;;;;7.43;4.78;;;;;;;;;;6208214;23;20059;-43
2021/12/25 13:41:49;;;;;;;6.70;4.95;;;;;;;;;;6208355;23;20015;-43
2021/12/25 13:44:28;;;;;;;6.45;4.40;;;;;;;;;;6207840;23;20012;-44
2021/12/25 13:46:56;;;;;;;6.97;5.07;;;;;;;;;;6208855;23;20032;-42
2021/12/25 13:49:27;;;;;;;5.82;5.10;;;;;;;;;;6207825;23;20159;-42
2021/12/25 13:51:53;;;;;;;6.15;4.78;;;;;;;;;;6208505;23;20024;-44
2021/12/25 13:54:19;;;;;;;9.18;5.95;;;;;;;;;;6207585;23;20005;-44
2021/12/25 13:56:48;;;;;;;8.23;4.95;;;;;;;;;;6208731;23;20119;-43
2021/12/25 13:59:13;;;;;;;6.55;4.97;;;;;;;;;;6207742;23;20082;-44
2021/12/25 14:01:38;;;;;;;5.28;4.75;;;;;;;;;;6208655;23;20005;-44
2021/12/25 14:04:08;;;;;;;8.60;5.95;;;;;;;;;;6208801;23;20092;-46
2021/12/25 14:06:33;;;;;;;11.63;6.63;;;;;;;;;;6231730;23;20036;-43
2021/12/25 14:08:58;;;;;;;8.80;6.10;;;;;;;;;;6208614;23;20345;-42
2021/12/25 14:11:23;;;;;;;9.85;6.20;;;;;;;;;;6208292;23;20581;-46
2021/12/25 14:13:49;;;;;;;8.55;6.22;;;;;;;;;;6206139;23;20016;-43
2021/12/25 14:16:14;;;;;;;7.43;6.03;;;;;;;;;;6207625;23;20044;-42
2021/12/25 14:18:40;;;;;;;11.18;7.85;;;;;;;;;;6207682;23;20093;-44
2021/12/25 14:21:12;;;;;;;9.18;6.85;;;;;;;;;;6208448;23;20004;-43
2021/12/25 14:23:38;;;;;;;8.65;6.93;;;;;;;;;;6207541;23;20011;-43
2021/12/25 14:26:03;;;;;;;9.57;7.00;;;;;;;;;;6207472;23;20008;-44
2021/12/25 14:28:30;;;;;;;12.75;8.40;;;;;;;;;;6208219;23;20123;-45
2021/12/25 14:31:00;;;;;;;11.35;8.05;;;;;;;;;;6208351;23;20147;-44
2021/12/25 14:33:26;;;;;;;10.85;7.20;;;;;;;;;;6207761;23;20017;-45
2021/12/25 14:35:51;;;;;;;11.70;8.07;;;;;;;;;;6208328;23;20019;-43
2021/12/25 14:38:17;;;;;;;13.98;8.95;;;;;;;;;;6207115;23;20039;-42
2021/12/25 14:40:46;;;;;;;15.13;8.63;;;;;;;;;;6208509;23;20005;-42
2021/12/25 14:43:13;;;;;;;13.02;8.27;;;;;;;;;;6207164;23;20011;-44
2021/12/25 14:45:42;;;;;;;12.63;8.40;;;;;;;;;;6208146;23;20004;-43
2021/12/25 14:48:07;;;;;;;16.67;9.05;;;;;;;;;;6208061;23;20043;-43
2021/12/25 14:50:33;;;;;;;16.00;9.88;;;;;;;;;;6207698;23;20008;-42
2021/12/25 14:53:10;;;;;;;14.95;9.23;;;;;;;;;;6207699;23;20017;-42
2021/12/25 14:55:37;;;;;;;12.65;9.82;;;;;;;;;;6206366;23;20472;-43
2021/12/25 14:58:14;;;;;;;14.13;9.40;;;;;;;;;;6208181;23;20112;-42
2021/12/25 15:00:39;;;;;;;14.68;8.48;;;;;;;;;;6207173;23;20089;-43
2021/12/25 15:03:21;;;;;;;15.32;9.23;;;;;;;;;;6208079;23;20021;-43
2021/12/25 15:05:49;;;;;;;14.90;9.63;;;;;;;;;;6206961;23;20005;-43
2021/12/25 15:08:34;;;;;;;14.10;9.40;;;;;;;;;;6207890;23;20009;-42
2021/12/25 15:11:08;;;;;;;17.75;10.73;;;;;;;;;;6208169;23;20004;-42
2021/12/25 15:13:34;;;;;;;16.80;10.20;;;;;;;;;;6207461;23;20012;-44
2021/12/25 15:16:00;;;;;;;19.10;8.85;;;;;;;;;;6207684;23;20008;-45
2021/12/25 15:18:27;;;;;;;19.70;10.45;;;;;;;;;;6206747;23;20012;-45
2021/12/25 15:21:07;;;;;;;20.45;11.35;;;;;;;;;;6208182;23;20063;-43
2021/12/25 15:23:33;;;;;;;19.73;11.23;;;;;;;;;;6206647;23;20013;-42
2021/12/25 15:26:05;;;;;;;19.90;11.48;;;;;;;;;;6207633;23;20019;-43
2021/12/25 15:28:30;;;;;;;16.95;10.45;;;;;;;;;;6206994;23;20013;-45
2021/12/25 15:30:56;;;;;;;19.38;11.20;;;;;;;;;;6207998;23;20012;-43
2021/12/25 15:33:21;;;;;;;23.40;11.00;;;;;;;;;;6206343;23;20092;-46
2021/12/25 15:35:46;;;;;;;12.50;9.40;;;;;;;;;;6205843;23;20005;-45
2021/12/25 15:38:22;;;;;;;17.38;9.93;;;;;;;;;;6206429;23;20013;-42
2021/12/25 15:40:49;;;;;;;15.70;9.70;;;;;;;;;;6207997;23;20024;-44